createdAt,value
2023-03-16T00:00:20.047Z,99937.63
2023-03-16T00:02:47.756Z,99944.62
2023-03-16T00:05:15.503Z,99945.59
2023-03-16T00:07:43.448Z,99949.63
2023-03-16T00:10:12.879Z,99948.25
2023-03-16T00:12:43.584Z,99944.50
2023-03-16T00:15:12.646Z,99952.56
2023-03-16T00:17:40.352Z,99949.63
2023-03-16T00:20:08.801Z,99955.91
2023-03-16T00:22:36.439Z,99955.66
2023-03-16T00:25:05.062Z,99953.47
2023-03-16T00:27:32.505Z,99953.28
2023-03-16T00:30:03.332Z,99961.75
2023-03-16T00:32:33.742Z,99963.56
2023-03-16T00:35:03.072Z,99960.56
2023-03-16T00:37:31.389Z,99956.34
2023-03-16T00:40:00.439Z,99959.91
2023-03-16T00:42:30.342Z,99957.03
2023-03-16T00:44:59.864Z,99959.47
2023-03-16T00:47:30.710Z,99955.34
2023-03-16T00:49:58.800Z,99962.81
2023-03-16T00:52:27.674Z,99961.13
2023-03-16T00:54:55.901Z,99966.09
2023-03-16T00:57:25.222Z,99967.00
2023-03-16T00:59:53.732Z,99964.38
2023-03-16T01:02:24.798Z,99963.69
2023-03-16T01:04:54.638Z,99965.59
2023-03-16T01:07:22.924Z,99971.22
2023-03-16T01:09:51.339Z,99970.53
2023-03-16T01:12:19.975Z,99973.72
2023-03-16T01:14:47.961Z,99977.13
2023-03-16T01:17:17.244Z,99982.06
2023-03-16T01:19:45.570Z,99969.00
2023-03-16T01:22:13.961Z,99975.78
2023-03-16T01:24:42.605Z,99973.75
2023-03-16T01:27:10.086Z,99979.66
2023-03-16T01:29:38.305Z,99969.25
2023-03-16T01:32:06.676Z,99980.97
2023-03-16T01:34:34.637Z,99975.19
2023-03-16T01:37:02.780Z,99974.69
2023-03-16T01:39:30.371Z,99983.41
2023-03-16T01:41:57.890Z,99986.44
2023-03-16T01:44:30.642Z,99978.84
2023-03-16T01:47:00.893Z,99978.63
2023-03-16T01:49:29.603Z,99984.59
2023-03-16T01:52:02.304Z,99985.63
2023-03-16T01:54:33.927Z,99989.47
2023-03-16T01:57:11.876Z,99985.22
2023-03-16T01:59:43.100Z,99981.41
2023-03-16T02:02:11.587Z,99997.94
2023-03-16T02:04:50.408Z,100000.50
2023-03-16T02:07:19.714Z,99999.16
2023-03-16T02:09:51.725Z,100004.81
2023-03-16T02:12:20.596Z,100016.28
2023-03-16T02:14:50.241Z,100012.31
2023-03-16T02:17:23.843Z,100007.63
2023-03-16T02:20:08.868Z,100015.31
2023-03-16T02:22:39.844Z,100020.44
2023-03-16T02:25:08.358Z,100019.87
2023-03-16T02:27:57.769Z,100023.87
2023-03-16T02:30:26.303Z,100026.13
2023-03-16T02:32:54.924Z,100020.25
2023-03-16T02:35:23.017Z,100028.38
2023-03-16T02:37:52.628Z,100029.91
2023-03-16T02:40:22.461Z,100033.06
2023-03-16T02:43:14.127Z,100036.41
2023-03-16T02:45:47.480Z,100043.31
2023-03-16T02:48:25.376Z,100045.31
2023-03-16T02:50:53.651Z,100052.91
2023-03-16T02:53:21.395Z,100052.91
2023-03-16T02:55:48.860Z,100056.66
2023-03-16T02:58:17.457Z,100058.66
2023-03-16T03:00:46.864Z,100059.31
2023-03-16T03:03:16.248Z,100063.25
2023-03-16T03:05:44.003Z,100059.72
2023-03-16T03:08:11.498Z,100074.63
2023-03-16T03:10:39.383Z,100073.22
2023-03-16T03:13:10.295Z,100085.47
2023-03-16T03:15:38.434Z,100090.38
2023-03-16T03:18:06.534Z,100093.22
2023-03-16T03:20:52.500Z,100089.47
2023-03-16T03:23:19.891Z,100093.31
2023-03-16T03:25:48.051Z,100096.47
2023-03-16T03:28:15.598Z,100095.75
2023-03-16T03:30:43.154Z,100099.44
2023-03-16T03:33:10.820Z,100104.56
2023-03-16T03:35:38.250Z,100103.72
2023-03-16T03:38:08.177Z,100103.22
2023-03-16T03:40:36.378Z,100102.63
2023-03-16T03:43:05.194Z,100117.50
2023-03-16T03:45:33.154Z,100114.25
2023-03-16T03:50:46.397Z,100128.59
2023-03-16T03:53:15.369Z,100127.12
2023-03-16T03:55:44.116Z,100123.13
2023-03-16T03:58:12.216Z,100125.81
2023-03-16T04:00:41.244Z,100128.97
2023-03-16T04:03:09.088Z,100127.88
2023-03-16T04:05:37.466Z,100131.22
2023-03-16T04:08:05.717Z,100129.69
2023-03-16T04:10:34.990Z,100133.94
2023-03-16T04:13:02.429Z,100131.72
2023-03-16T04:15:33.010Z,100135.28
2023-03-16T04:18:02.060Z,100139.06
2023-03-16T04:20:29.943Z,100147.06
2023-03-16T04:23:00.316Z,100137.28
2023-03-16T04:25:30.671Z,100151.03
2023-03-16T04:27:58.648Z,100151.34
2023-03-16T04:30:26.582Z,100148.28
2023-03-16T04:32:54.958Z,100152.37
2023-03-16T04:35:22.515Z,100164.28
2023-03-16T04:37:50.106Z,100168.25
2023-03-16T04:40:19.396Z,100158.91
2023-03-16T04:42:48.060Z,100174.66
2023-03-16T04:45:18.038Z,100174.56
2023-03-16T04:47:46.144Z,100170.47
2023-03-16T04:50:13.756Z,100173.81
2023-03-16T04:52:41.663Z,100181.94
2023-03-16T04:55:09.611Z,100176.00
2023-03-16T04:57:37.675Z,100180.84
2023-03-16T05:00:14.012Z,100193.19
2023-03-16T05:02:42.092Z,100190.16
2023-03-16T05:05:09.770Z,100203.31
2023-03-16T05:07:42.727Z,100194.13
2023-03-16T05:10:16.489Z,100202.41
2023-03-16T05:12:43.928Z,100208.66
2023-03-16T05:15:11.962Z,100207.88
2023-03-16T05:17:41.985Z,100210.03
2023-03-16T05:20:16.076Z,100215.91
2023-03-16T05:22:46.045Z,100222.31
2023-03-16T05:25:15.148Z,100218.72
2023-03-16T05:27:44.250Z,100223.69
2023-03-16T05:30:14.158Z,100222.69
2023-03-16T05:32:42.421Z,100221.97
2023-03-16T05:35:13.415Z,100220.75
2023-03-16T05:37:42.412Z,100219.63
2023-03-16T05:40:22.967Z,100221.09
2023-03-16T05:42:55.731Z,100225.00
2023-03-16T05:45:23.935Z,100219.69
2023-03-16T05:47:53.550Z,100225.31
2023-03-16T05:50:22.010Z,100230.81
2023-03-16T05:52:49.532Z,100231.19
2023-03-16T05:55:19.586Z,100241.94
2023-03-16T05:57:48.961Z,100239.78
2023-03-16T06:00:18.243Z,100238.28
2023-03-16T06:02:48.825Z,100246.59
2023-03-16T06:05:18.974Z,100248.19
2023-03-16T06:07:47.148Z,100254.53
2023-03-16T06:10:15.303Z,100259.75
2023-03-16T06:12:43.261Z,100256.94
2023-03-16T06:15:12.044Z,100260.81
2023-03-16T06:17:40.988Z,100266.12
2023-03-16T06:20:11.386Z,100262.66
2023-03-16T06:22:41.209Z,100266.72
2023-03-16T06:25:09.964Z,100272.16
2023-03-16T06:27:38.028Z,100286.81
2023-03-16T06:30:07.210Z,100282.09
2023-03-16T06:32:36.220Z,100289.97
2023-03-16T06:35:05.095Z,100289.66
2023-03-16T06:37:33.538Z,100288.09
2023-03-16T06:40:01.836Z,100281.37
2023-03-16T06:42:29.680Z,100294.56
2023-03-16T06:44:58.048Z,100281.69
2023-03-16T06:47:26.320Z,100297.72
2023-03-16T06:49:55.225Z,100309.19
2023-03-16T06:52:23.628Z,100307.66
2023-03-16T06:54:51.225Z,100315.09
2023-03-16T06:57:19.948Z,100314.44
2023-03-16T06:59:47.807Z,100321.38
2023-03-16T07:02:15.363Z,100315.06
2023-03-16T07:04:43.453Z,100333.09
2023-03-16T07:07:11.841Z,100319.25
2023-03-16T07:09:41.667Z,100316.25
2023-03-16T07:12:10.244Z,100326.44
2023-03-16T07:14:38.296Z,100329.22
2023-03-16T07:17:06.649Z,100329.22
2023-03-16T07:19:34.070Z,100339.06
2023-03-16T07:22:02.881Z,100344.44
2023-03-16T07:24:32.805Z,100344.34
2023-03-16T07:27:00.345Z,100337.81
2023-03-16T07:29:28.849Z,100346.66
2023-03-16T07:31:56.829Z,100357.28
2023-03-16T07:34:25.217Z,100364.91
2023-03-16T07:36:53.197Z,100368.59
2023-03-16T07:39:21.572Z,100363.38
2023-03-16T07:41:51.347Z,100358.94
2023-03-16T07:44:19.342Z,100363.41
2023-03-16T07:46:47.304Z,100365.34
2023-03-16T07:49:16.782Z,100361.16
2023-03-16T07:51:45.716Z,100365.19
2023-03-16T07:54:18.156Z,100374.44
2023-03-16T07:56:49.213Z,100370.75
2023-03-16T07:59:20.456Z,100369.03
2023-03-16T08:01:48.976Z,100376.56
2023-03-16T08:04:16.675Z,100370.19
2023-03-16T08:06:44.412Z,100370.97
2023-03-16T08:09:12.101Z,100370.16
2023-03-16T08:11:40.062Z,100365.00
2023-03-16T08:14:07.543Z,100373.78
2023-03-16T08:16:37.491Z,100370.38
2023-03-16T08:19:05.799Z,100380.25
2023-03-16T08:21:35.126Z,100384.28
2023-03-16T08:24:06.510Z,100391.19
2023-03-16T08:26:34.862Z,100384.09
2023-03-16T08:29:04.692Z,100397.81
2023-03-16T08:31:35.313Z,100387.28
2023-03-16T08:34:03.950Z,100391.59
2023-03-16T08:36:32.459Z,100393.37
2023-03-16T08:39:06.977Z,100394.00
2023-03-16T08:41:35.492Z,100384.88
2023-03-16T08:44:04.245Z,100384.84
2023-03-16T08:46:34.093Z,100386.19
2023-03-16T08:49:02.821Z,100389.66
2023-03-16T08:51:32.646Z,100376.00
2023-03-16T08:54:00.715Z,100380.34
2023-03-16T08:56:30.511Z,100383.47
2023-03-16T08:58:58.486Z,100385.63
2023-03-16T09:01:26.812Z,100385.97
2023-03-16T09:03:55.040Z,100386.25
2023-03-16T09:06:22.845Z,100370.66
2023-03-16T09:08:50.266Z,100386.37
2023-03-16T09:11:19.185Z,100376.09
2023-03-16T09:13:47.350Z,100383.03
2023-03-16T09:16:15.779Z,100385.81
2023-03-16T09:18:43.857Z,100387.16
2023-03-16T09:21:13.919Z,100384.62
2023-03-16T09:23:42.929Z,100400.66
2023-03-16T09:26:12.532Z,100394.19
2023-03-16T09:28:41.996Z,100395.06
2023-03-16T09:31:12.965Z,100394.59
2023-03-16T09:33:40.642Z,100386.81
2023-03-16T09:36:11.454Z,100390.03
2023-03-16T09:38:39.458Z,100393.69
2023-03-16T09:41:08.546Z,100399.31
2023-03-16T09:43:39.724Z,100395.75
2023-03-16T09:46:07.227Z,100390.53
2023-03-16T09:48:35.630Z,100396.66
2023-03-16T09:51:04.485Z,100396.03
2023-03-16T09:53:33.002Z,100400.31
2023-03-16T09:56:00.127Z,100397.63
2023-03-16T09:58:27.301Z,100408.41
2023-03-16T10:00:58.225Z,100407.69
2023-03-16T10:03:28.795Z,100407.97
2023-03-16T10:05:57.814Z,100401.44
2023-03-16T10:08:25.898Z,100408.78
2023-03-16T10:11:12.600Z,100406.16
2023-03-16T10:13:57.046Z,100411.47
2023-03-16T10:16:30.928Z,100404.31
2023-03-16T10:19:03.510Z,100395.16
2023-03-16T10:21:34.462Z,100403.78
2023-03-16T10:24:04.244Z,100411.47
2023-03-16T10:26:39.301Z,100399.84
2023-03-16T10:29:12.732Z,100398.38
2023-03-16T10:31:44.296Z,100409.87
2023-03-16T10:34:11.824Z,100400.13
2023-03-16T10:36:42.070Z,100410.03
2023-03-16T10:39:14.576Z,100415.03
2023-03-16T10:41:45.985Z,100411.59
2023-03-16T10:44:23.551Z,100400.16
2023-03-16T10:46:57.969Z,100395.66
2023-03-16T10:49:29.695Z,100396.66
2023-03-16T10:51:59.479Z,100402.53
2023-03-16T10:54:31.816Z,100391.47
2023-03-16T10:56:59.118Z,100396.44
2023-03-16T10:59:34.395Z,100399.91
2023-03-16T11:02:18.008Z,100405.22
2023-03-16T11:04:46.237Z,100399.03
2023-03-16T11:07:19.769Z,100397.16
2023-03-16T11:09:48.457Z,100403.69
2023-03-16T11:12:21.732Z,100402.50
2023-03-16T11:14:49.227Z,100390.53
2023-03-16T11:17:39.848Z,100385.19
2023-03-16T11:20:17.614Z,100378.09
2023-03-16T11:22:45.643Z,100380.81
2023-03-16T11:25:15.633Z,100381.69
2023-03-16T11:27:51.490Z,100379.75
2023-03-16T11:30:24.992Z,100375.84
2023-03-16T11:32:54.184Z,100373.63
2023-03-16T11:36:01.278Z,100368.72
2023-03-16T11:39:07.664Z,100362.91
2023-03-16T11:41:48.432Z,100356.72
2023-03-16T11:44:22.369Z,100369.69
2023-03-16T11:46:53.439Z,100355.25
2023-03-16T11:49:36.104Z,100361.16
2023-03-16T11:52:23.498Z,100367.91
2023-03-16T11:54:54.383Z,100365.09
2023-03-16T11:57:32.754Z,100358.69
2023-03-16T12:00:06.197Z,100339.41
2023-03-16T12:02:54.219Z,100306.34
2023-03-16T12:05:36.676Z,100347.03
2023-03-16T12:08:23.184Z,100353.66
2023-03-16T12:10:50.526Z,100346.38
2023-03-16T12:13:33.188Z,100353.44
2023-03-16T12:16:11.682Z,100337.84
2023-03-16T12:18:45.694Z,100335.31
2023-03-16T12:21:25.675Z,100335.22
2023-03-16T12:23:56.644Z,100334.22
2023-03-16T12:26:29.871Z,100343.16
2023-03-16T12:28:58.574Z,100339.09
2023-03-16T12:31:36.542Z,100344.28
2023-03-16T12:34:13.734Z,100336.13
2023-03-16T12:36:41.299Z,100339.31
2023-03-16T12:39:11.998Z,100342.69
2023-03-16T12:41:54.575Z,100348.38
2023-03-16T12:44:40.746Z,100333.88
2023-03-16T12:47:15.321Z,100336.47
2023-03-16T12:49:43.227Z,100335.47
2023-03-16T12:52:12.552Z,100333.06
2023-03-16T12:54:49.905Z,100349.16
2023-03-16T12:57:18.589Z,100333.44
2023-03-16T12:59:53.050Z,100340.81
2023-03-16T13:02:26.495Z,100333.97
2023-03-16T13:05:01.319Z,100337.31
2023-03-16T13:07:31.136Z,100334.97
2023-03-16T13:09:59.307Z,100335.66
2023-03-16T13:12:28.030Z,100328.25
2023-03-16T13:14:55.976Z,100317.53
2023-03-16T13:17:31.244Z,100335.53
2023-03-16T13:20:02.183Z,100338.91
2023-03-16T13:22:31.254Z,100345.41
2023-03-16T13:25:18.785Z,100351.31
2023-03-16T13:27:46.769Z,100349.78
2023-03-16T13:30:23.718Z,100336.31
2023-03-16T13:32:56.292Z,100342.37
2023-03-16T13:35:28.881Z,100335.47
2023-03-16T13:38:05.684Z,100345.53
2023-03-16T13:40:33.529Z,100336.06
2023-03-16T13:43:02.057Z,100341.97
2023-03-16T13:45:34.353Z,100352.75
2023-03-16T13:48:02.143Z,100349.31
2023-03-16T13:50:34.088Z,100344.47
2023-03-16T13:53:04.434Z,100330.41
2023-03-16T13:55:34.797Z,100338.78
2023-03-16T13:58:03.950Z,100351.88
2023-03-16T14:00:37.067Z,100344.03
2023-03-16T14:03:20.089Z,100335.06
2023-03-16T14:05:47.857Z,100343.31
2023-03-16T14:08:16.909Z,100322.88
2023-03-16T14:10:45.462Z,100335.75
2023-03-16T14:13:25.570Z,100339.81
2023-03-16T14:16:00.255Z,100342.13
2023-03-16T14:18:35.019Z,100338.00
2023-03-16T14:21:24.355Z,100337.41
2023-03-16T14:24:06.645Z,100337.91
2023-03-16T14:27:19.506Z,100339.38
2023-03-16T14:29:53.232Z,100341.16
2023-03-16T14:32:28.585Z,100344.41
2023-03-16T14:35:16.572Z,100352.44
2023-03-16T14:37:45.019Z,100349.72
2023-03-16T14:40:33.289Z,100357.41
2023-03-16T14:43:04.013Z,100357.06
2023-03-16T14:45:33.959Z,100356.22
2023-03-16T14:48:05.224Z,100352.50
2023-03-16T14:50:33.753Z,100319.94
2023-03-16T14:53:03.903Z,100357.00
2023-03-16T14:55:32.265Z,100366.03
2023-03-16T14:57:59.732Z,100370.00
2023-03-16T15:00:27.135Z,100367.44
2023-03-16T15:03:06.097Z,100365.16
2023-03-16T15:05:46.216Z,100358.03
2023-03-16T15:08:28.618Z,100362.00
2023-03-16T15:10:59.142Z,100354.78
2023-03-16T15:13:39.808Z,100359.56
2023-03-16T15:16:11.491Z,100350.69
2023-03-16T15:18:39.917Z,100367.53
2023-03-16T15:21:26.309Z,100364.34
2023-03-16T15:23:54.087Z,100377.31
2023-03-16T15:26:25.101Z,100382.56
2023-03-16T15:28:53.202Z,100373.03
2023-03-16T15:31:21.495Z,100384.62
2023-03-16T15:33:49.057Z,100380.84
2023-03-16T15:36:18.822Z,100382.00
2023-03-16T15:38:49.477Z,100377.53
2023-03-16T15:41:17.507Z,100376.72
2023-03-16T15:43:45.765Z,100392.66
2023-03-16T15:46:13.821Z,100384.66
2023-03-16T15:48:41.303Z,100405.06
2023-03-16T15:51:23.917Z,100398.53
2023-03-16T15:53:57.987Z,100398.62
2023-03-16T15:56:30.006Z,100403.34
2023-03-16T15:59:00.576Z,100405.03
2023-03-16T16:01:31.977Z,100400.84
2023-03-16T16:04:04.652Z,100401.62
2023-03-16T16:06:32.828Z,100410.03
2023-03-16T16:09:01.052Z,100413.84
2023-03-16T16:11:28.898Z,100419.09
2023-03-16T16:13:57.534Z,100415.38
2023-03-16T16:16:29.490Z,100413.94
2023-03-16T16:18:57.200Z,100420.72
2023-03-16T16:21:29.180Z,100426.16
2023-03-16T16:23:56.965Z,100426.78
2023-03-16T16:26:41.527Z,100432.31
2023-03-16T16:29:17.315Z,100435.06
2023-03-16T16:31:45.206Z,100439.72
2023-03-16T16:34:15.165Z,100437.09
2023-03-16T16:36:42.806Z,100443.87
2023-03-16T16:39:11.123Z,100448.25
2023-03-16T16:41:40.105Z,100450.13
2023-03-16T16:44:15.938Z,100459.62
2023-03-16T16:46:44.236Z,100460.28
2023-03-16T16:49:15.458Z,100465.66
2023-03-16T16:51:43.304Z,100472.22
2023-03-16T16:54:22.943Z,100471.03
2023-03-16T16:56:55.012Z,100476.34
2023-03-16T16:59:31.606Z,100484.13
2023-03-16T17:02:00.817Z,100484.22
2023-03-16T17:04:29.702Z,100481.72
2023-03-16T17:07:00.958Z,100489.50
2023-03-16T17:09:29.026Z,100497.19
2023-03-16T17:11:59.263Z,100500.84
2023-03-16T17:14:28.384Z,100497.81
2023-03-16T17:16:56.624Z,100503.97
2023-03-16T17:19:25.318Z,100504.94
2023-03-16T17:21:53.465Z,100512.59
2023-03-16T17:24:22.131Z,100515.13
2023-03-16T17:26:54.217Z,100517.41
2023-03-16T17:29:23.422Z,100513.94
2023-03-16T17:31:51.252Z,100521.72
2023-03-16T17:34:18.640Z,100528.03
2023-03-16T17:36:49.450Z,100521.87
2023-03-16T17:39:35.492Z,100519.97
2023-03-16T17:42:08.321Z,100514.41
2023-03-16T17:44:39.050Z,100519.91
2023-03-16T17:47:38.511Z,100525.56
2023-03-16T17:50:22.371Z,100528.84
2023-03-16T17:52:54.546Z,100529.69
2023-03-16T17:55:24.698Z,100538.09
2023-03-16T17:57:54.162Z,100537.97
2023-03-16T18:00:28.126Z,100531.72
2023-03-16T18:02:57.486Z,100541.28
2023-03-16T18:05:30.658Z,100537.09
2023-03-16T18:08:00.884Z,100545.25
2023-03-16T18:10:30.133Z,100549.97
2023-03-16T18:13:05.267Z,100556.63
2023-03-16T18:15:34.337Z,100551.16
2023-03-16T18:18:07.994Z,100554.75
2023-03-16T18:20:39.679Z,100568.41
2023-03-16T18:23:30.425Z,100553.09
2023-03-16T18:26:04.146Z,100562.44
2023-03-16T18:28:33.329Z,100573.19
2023-03-16T18:31:10.979Z,100572.72
2023-03-16T18:33:41.411Z,100572.44
2023-03-16T18:36:14.220Z,100579.75
2023-03-16T18:38:44.138Z,100571.38
2023-03-16T18:41:17.474Z,100573.84
2023-03-16T18:43:50.564Z,100578.38
2023-03-16T18:46:20.384Z,100574.53
2023-03-16T18:48:49.685Z,100582.06
2023-03-16T18:51:18.812Z,100587.88
2023-03-16T18:53:47.397Z,100588.75
2023-03-16T18:56:24.906Z,100589.25
2023-03-16T18:58:54.772Z,100601.47
2023-03-16T19:01:27.460Z,100602.03
2023-03-16T19:03:56.634Z,100614.09
2023-03-16T19:06:31.457Z,100615.63
2023-03-16T19:09:15.505Z,100618.22
2023-03-16T19:11:45.008Z,100627.16
2023-03-16T19:14:15.347Z,100628.44
2023-03-16T19:16:44.787Z,100623.19
2023-03-16T19:19:13.990Z,100629.84
2023-03-16T19:21:43.328Z,100655.72
2023-03-16T19:24:18.230Z,100661.66
2023-03-16T19:26:47.185Z,100663.53
2023-03-16T19:29:16.130Z,100661.19
2023-03-16T19:31:44.588Z,100664.91
2023-03-16T19:34:17.753Z,100669.28
2023-03-16T19:36:50.555Z,100677.00
2023-03-16T19:39:19.936Z,100680.91
2023-03-16T19:41:50.457Z,100684.41
2023-03-16T19:44:20.654Z,100683.56
2023-03-16T19:46:50.878Z,100693.09
2023-03-16T19:49:23.290Z,100694.22
2023-03-16T19:51:53.163Z,100696.66
2023-03-16T19:54:28.320Z,100690.53
2023-03-16T19:56:57.329Z,100699.66
2023-03-16T19:59:26.779Z,100695.38
2023-03-16T20:01:57.998Z,100702.31
2023-03-16T20:04:28.945Z,100709.25
2023-03-16T20:06:57.693Z,100708.13
2023-03-16T20:09:29.629Z,100716.84
2023-03-16T20:12:01.320Z,100717.31
2023-03-16T20:14:32.685Z,100714.50
2023-03-16T20:17:01.623Z,100715.72
2023-03-16T20:19:30.080Z,100720.16
2023-03-16T20:22:01.234Z,100718.19
2023-03-16T20:24:34.126Z,100722.88
2023-03-16T20:27:04.631Z,100712.06
2023-03-16T20:29:33.220Z,100721.81
2023-03-16T20:32:06.034Z,100715.31
2023-03-16T20:34:35.499Z,100722.00
2023-03-16T20:37:03.169Z,100728.06
2023-03-16T20:39:33.507Z,100723.91
2023-03-16T20:42:02.014Z,100726.16
2023-03-16T20:44:32.717Z,100726.72
2023-03-16T20:47:00.593Z,100733.00
2023-03-16T20:49:30.353Z,100729.88
2023-03-16T20:51:58.631Z,100736.34
2023-03-16T20:54:26.317Z,100739.50
2023-03-16T20:56:55.479Z,100731.44
2023-03-16T20:59:26.357Z,100729.75
2023-03-16T21:01:55.753Z,100734.34
2023-03-16T21:04:25.931Z,100743.16
2023-03-16T21:06:54.037Z,100736.78
2023-03-16T21:09:23.381Z,100754.91
2023-03-16T21:11:51.108Z,100753.88
2023-03-16T21:14:22.464Z,100754.84
2023-03-16T21:16:49.889Z,100758.66
2023-03-16T21:19:19.147Z,100745.34
2023-03-16T21:21:47.004Z,100752.03
2023-03-16T21:24:14.830Z,100753.09
2023-03-16T21:26:42.169Z,100761.59
2023-03-16T21:29:16.774Z,100768.72
2023-03-16T21:31:44.063Z,100767.81
2023-03-16T21:34:38.154Z,100770.41
2023-03-16T21:37:11.928Z,100773.88
2023-03-16T21:39:39.460Z,100779.06
2023-03-16T21:42:07.071Z,100784.38
2023-03-16T21:44:34.312Z,100780.16
2023-03-16T21:47:01.921Z,100784.53
2023-03-16T21:49:29.296Z,100777.81
2023-03-16T21:51:56.724Z,100776.19
2023-03-16T21:54:24.218Z,100779.00
2023-03-16T21:56:51.472Z,100775.75
2023-03-16T21:59:18.641Z,100768.87
2023-03-16T22:02:00.730Z,100774.78
2023-03-16T22:04:28.937Z,100769.41
2023-03-16T22:06:56.185Z,100782.56
2023-03-16T22:09:24.956Z,100784.81
2023-03-16T22:11:52.546Z,100784.69
2023-03-16T22:14:19.889Z,100783.19
2023-03-16T22:16:47.415Z,100794.88
2023-03-16T22:19:15.943Z,100796.00
2023-03-16T22:21:43.776Z,100788.97
2023-03-16T22:24:15.791Z,100790.84
2023-03-16T22:26:43.218Z,100790.59
2023-03-16T22:29:23.281Z,100787.72
2023-03-16T22:31:53.796Z,100784.78
2023-03-16T22:34:29.172Z,100790.47
2023-03-16T22:36:56.949Z,100790.03
2023-03-16T22:39:24.193Z,100795.88
2023-03-16T22:41:51.929Z,100791.22
2023-03-16T22:44:22.974Z,100798.41
2023-03-16T22:46:50.814Z,100804.19
2023-03-16T22:49:19.876Z,100811.41
2023-03-16T22:51:47.321Z,100806.06
2023-03-16T22:54:15.960Z,100797.78
2023-03-16T22:56:43.994Z,100799.13
2023-03-16T22:59:13.283Z,100795.97
2023-03-16T23:01:41.790Z,100795.81
2023-03-16T23:04:13.620Z,100798.97
2023-03-16T23:06:41.957Z,100808.12
2023-03-16T23:09:11.167Z,100811.69
2023-03-16T23:11:38.297Z,100811.69
2023-03-16T23:14:15.983Z,100814.78
2023-03-16T23:16:44.404Z,100813.78
2023-03-16T23:19:32.777Z,100811.22
2023-03-16T23:22:04.540Z,100812.66
2023-03-16T23:24:32.397Z,100812.97
2023-03-16T23:26:59.582Z,100812.00
2023-03-16T23:29:26.733Z,100818.47
2023-03-16T23:31:54.694Z,100819.59
2023-03-16T23:34:23.205Z,100813.69
2023-03-16T23:36:51.386Z,100818.28
2023-03-16T23:39:19.082Z,100823.19
2023-03-16T23:41:47.182Z,100818.56
2023-03-16T23:44:21.660Z,100820.88
2023-03-16T23:46:49.194Z,100820.34
2023-03-16T23:49:22.583Z,100828.16
2023-03-16T23:51:51.017Z,100828.88
2023-03-16T23:54:25.432Z,100835.56
2023-03-16T23:56:52.891Z,100830.31
2023-03-16T23:59:20.927Z,100832.44
